sensor_id;sensor_type;location;lat;lon;timestamp;temperature;humidity
10702;DHT22;5402;50.004;8.246;2022-12-05T00:00:25;2.80;99.90
10702;DHT22;5402;50.004;8.246;2022-12-05T00:02:53;2.70;99.90
10702;DHT22;5402;50.004;8.246;2022-12-05T00:05:20;2.70;99.90
10702;DHT22;5402;50.004;8.246;2022-12-05T00:07:46;2.70;99.90
10702;DHT22;5402;50.004;8.246;2022-12-05T00:10:14;2.70;99.90
10702;DHT22;5402;50.004;8.246;2022-12-05T00:12:41;2.60;99.90
10702;DHT22;5402;50.004;8.246;2022-12-05T00:15:09;2.70;99.90
10702;DHT22;5402;50.004;8.246;2022-12-05T00:17:37;2.70;99.90
10702;DHT22;5402;50.004;8.246;2022-12-05T00:20:07;2.60;99.90
10702;DHT22;5402;50.004;8.246;2022-12-05T00:22:35;2.60;99.90
10702;DHT22;5402;50.004;8.246;2022-12-05T00:25:04;2.70;99.90
10702;DHT22;5402;50.004;8.246;2022-12-05T00:27:31;2.80;99.90
10702;DHT22;5402;50.004;8.246;2022-12-05T00:29:58;2.70;99.90
10702;DHT22;5402;50.004;8.246;2022-12-05T00:32:26;2.90;99.90
10702;DHT22;5402;50.004;8.246;2022-12-05T00:34:53;2.80;99.90
10702;DHT22;5402;50.004;8.246;2022-12-05T00:37:22;2.80;99.90
10702;DHT22;5402;50.004;8.246;2022-12-05T00:39:49;2.80;99.90
10702;DHT22;5402;50.004;8.246;2022-12-05T00:42:16;2.80;99.90
10702;DHT22;5402;50.004;8.246;2022-12-05T00:44:42;2.80;99.90
10702;DHT22;5402;50.004;8.246;2022-12-05T00:47:09;2.70;99.90
10702;DHT22;5402;50.004;8.246;2022-12-05T00:49:36;2.80;99.90
10702;DHT22;5402;50.004;8.246;2022-12-05T00:52:03;2.80;99.90
10702;DHT22;5402;50.004;8.246;2022-12-05T00:54:31;2.80;99.90
10702;DHT22;5402;50.004;8.246;2022-12-05T00:56:58;2.80;99.90
10702;DHT22;5402;50.004;8.246;2022-12-05T00:59:25;2.80;99.90
10702;DHT22;5402;50.004;8.246;2022-12-05T01:01:52;2.80;99.90
10702;DHT22;5402;50.004;8.246;2022-12-05T01:04:21;2.80;99.90
10702;DHT22;5402;50.004;8.246;2022-12-05T01:06:49;2.90;99.90
10702;DHT22;5402;50.004;8.246;2022-12-05T01:09:18;2.90;99.90
10702;DHT22;5402;50.004;8.246;2022-12-05T01:11:47;2.80;99.90
10702;DHT22;5402;50.004;8.246;2022-12-05T01:14:15;2.80;99.90
10702;DHT22;5402;50.004;8.246;2022-12-05T01:16:44;2.80;99.90
10702;DHT22;5402;50.004;8.246;2022-12-05T01:19:16;2.70;99.90
10702;DHT22;5402;50.004;8.246;2022-12-05T01:21:43;2.70;99.90
10702;DHT22;5402;50.004;8.246;2022-12-05T01:24:11;2.70;99.90
10702;DHT22;5402;50.004;8.246;2022-12-05T01:26:39;2.60;99.90
10702;DHT22;5402;50.004;8.246;2022-12-05T01:29:08;2.70;99.90
10702;DHT22;5402;50.004;8.246;2022-12-05T01:31:35;2.70;99.90
10702;DHT22;5402;50.004;8.246;2022-12-05T01:34:04;2.80;99.90
10702;DHT22;5402;50.004;8.246;2022-12-05T01:36:32;2.60;99.90
10702;DHT22;5402;50.004;8.246;2022-12-05T01:38:59;2.60;99.90
10702;DHT22;5402;50.004;8.246;2022-12-05T01:41:28;2.70;99.90
10702;DHT22;5402;50.004;8.246;2022-12-05T01:43:57;2.80;99.90
10702;DHT22;5402;50.004;8.246;2022-12-05T01:46:27;2.70;99.90
10702;DHT22;5402;50.004;8.246;2022-12-05T01:48:57;2.70;99.90
10702;DHT22;5402;50.004;8.246;2022-12-05T01:51:25;2.80;99.90
10702;DHT22;5402;50.004;8.246;2022-12-05T01:53:52;2.80;99.90
10702;DHT22;5402;50.004;8.246;2022-12-05T01:56:19;2.70;99.90
10702;DHT22;5402;50.004;8.246;2022-12-05T01:58:47;2.70;99.90
10702;DHT22;5402;50.004;8.246;2022-12-05T02:01:15;2.70;99.90
10702;DHT22;5402;50.004;8.246;2022-12-05T02:03:45;2.80;99.90
10702;DHT22;5402;50.004;8.246;2022-12-05T02:06:14;2.90;99.90
10702;DHT22;5402;50.004;8.246;2022-12-05T02:08:42;2.90;99.90
10702;DHT22;5402;50.004;8.246;2022-12-05T02:11:10;2.90;99.90
10702;DHT22;5402;50.004;8.246;2022-12-05T02:13:50;2.90;99.90
10702;DHT22;5402;50.004;8.246;2022-12-05T02:16:25;2.90;99.90
10702;DHT22;5402;50.004;8.246;2022-12-05T02:19:04;2.90;99.90
10702;DHT22;5402;50.004;8.246;2022-12-05T02:21:53;2.90;99.90
10702;DHT22;5402;50.004;8.246;2022-12-05T02:24:49;2.90;99.90
10702;DHT22;5402;50.004;8.246;2022-12-05T02:27:31;2.80;99.90
10702;DHT22;5402;50.004;8.246;2022-12-05T02:30:06;2.80;99.90
10702;DHT22;5402;50.004;8.246;2022-12-05T02:32:42;2.80;99.90
10702;DHT22;5402;50.004;8.246;2022-12-05T02:35:21;2.80;99.90
10702;DHT22;5402;50.004;8.246;2022-12-05T02:37:59;2.70;99.90
10702;DHT22;5402;50.004;8.246;2022-12-05T02:40:31;2.70;99.90
10702;DHT22;5402;50.004;8.246;2022-12-05T02:43:03;2.70;99.90
10702;DHT22;5402;50.004;8.246;2022-12-05T02:45:34;2.70;99.90
10702;DHT22;5402;50.004;8.246;2022-12-05T02:48:03;2.70;99.90
10702;DHT22;5402;50.004;8.246;2022-12-05T02:50:33;2.60;99.90
10702;DHT22;5402;50.004;8.246;2022-12-05T02:53:05;2.60;99.90
10702;DHT22;5402;50.004;8.246;2022-12-05T02:55:34;2.70;99.90
10702;DHT22;5402;50.004;8.246;2022-12-05T02:58:06;2.60;99.90
10702;DHT22;5402;50.004;8.246;2022-12-05T03:00:38;2.90;99.90
10702;DHT22;5402;50.004;8.246;2022-12-05T03:03:12;2.80;99.90
10702;DHT22;5402;50.004;8.246;2022-12-05T03:05:43;2.90;99.90
10702;DHT22;5402;50.004;8.246;2022-12-05T03:08:16;2.90;99.90
10702;DHT22;5402;50.004;8.246;2022-12-05T03:10:44;2.90;99.90
10702;DHT22;5402;50.004;8.246;2022-12-05T03:13:16;3.40;99.90
10702;DHT22;5402;50.004;8.246;2022-12-05T03:15:49;3.00;99.90
10702;DHT22;5402;50.004;8.246;2022-12-05T03:18:21;3.00;99.90
10702;DHT22;5402;50.004;8.246;2022-12-05T03:20:52;3.00;99.90
10702;DHT22;5402;50.004;8.246;2022-12-05T03:23:23;3.00;99.90
10702;DHT22;5402;50.004;8.246;2022-12-05T03:25:57;3.00;99.90
10702;DHT22;5402;50.004;8.246;2022-12-05T03:28:30;3.10;99.90
10702;DHT22;5402;50.004;8.246;2022-12-05T03:31:03;3.10;99.90
10702;DHT22;5402;50.004;8.246;2022-12-05T03:33:39;3.10;99.90
10702;DHT22;5402;50.004;8.246;2022-12-05T03:36:12;3.00;99.90
10702;DHT22;5402;50.004;8.246;2022-12-05T03:38:46;2.90;99.90
10702;DHT22;5402;50.004;8.246;2022-12-05T03:41:21;2.90;99.90
10702;DHT22;5402;50.004;8.246;2022-12-05T03:43:53;2.90;99.90
10702;DHT22;5402;50.004;8.246;2022-12-05T03:46:26;2.90;99.90
10702;DHT22;5402;50.004;8.246;2022-12-05T03:48:58;3.10;99.90
10702;DHT22;5402;50.004;8.246;2022-12-05T03:51:33;3.10;99.90
10702;DHT22;5402;50.004;8.246;2022-12-05T03:54:05;3.20;99.90
10702;DHT22;5402;50.004;8.246;2022-12-05T03:56:38;3.10;99.90
10702;DHT22;5402;50.004;8.246;2022-12-05T03:59:09;3.00;99.90
10702;DHT22;5402;50.004;8.246;2022-12-05T04:01:41;3.00;99.90
10702;DHT22;5402;50.004;8.246;2022-12-05T04:04:13;3.00;99.90
10702;DHT22;5402;50.004;8.246;2022-12-05T04:06:45;3.00;99.90
10702;DHT22;5402;50.004;8.246;2022-12-05T04:09:17;3.00;99.90
10702;DHT22;5402;50.004;8.246;2022-12-05T04:11:48;2.90;99.90
10702;DHT22;5402;50.004;8.246;2022-12-05T04:14:21;2.90;99.90
10702;DHT22;5402;50.004;8.246;2022-12-05T04:16:55;3.00;99.90
10702;DHT22;5402;50.004;8.246;2022-12-05T04:19:34;3.00;99.90
10702;DHT22;5402;50.004;8.246;2022-12-05T04:22:22;2.90;99.90
10702;DHT22;5402;50.004;8.246;2022-12-05T04:24:50;3.00;99.90
10702;DHT22;5402;50.004;8.246;2022-12-05T04:27:39;3.00;99.90
10702;DHT22;5402;50.004;8.246;2022-12-05T04:30:10;3.00;99.90
10702;DHT22;5402;50.004;8.246;2022-12-05T04:32:44;3.10;99.90
10702;DHT22;5402;50.004;8.246;2022-12-05T04:35:14;3.20;99.90
10702;DHT22;5402;50.004;8.246;2022-12-05T04:37:46;3.20;99.90
10702;DHT22;5402;50.004;8.246;2022-12-05T04:40:18;3.20;99.90
10702;DHT22;5402;50.004;8.246;2022-12-05T04:42:46;3.20;99.90
10702;DHT22;5402;50.004;8.246;2022-12-05T04:45:16;3.20;99.90
10702;DHT22;5402;50.004;8.246;2022-12-05T04:47:49;3.20;99.90
10702;DHT22;5402;50.004;8.246;2022-12-05T04:50:18;3.30;99.90
10702;DHT22;5402;50.004;8.246;2022-12-05T04:52:49;3.30;99.90
10702;DHT22;5402;50.004;8.246;2022-12-05T04:55:19;3.20;99.90
10702;DHT22;5402;50.004;8.246;2022-12-05T04:57:59;3.20;99.90
10702;DHT22;5402;50.004;8.246;2022-12-05T05:00:29;3.30;99.90
10702;DHT22;5402;50.004;8.246;2022-12-05T05:03:03;3.30;99.90
10702;DHT22;5402;50.004;8.246;2022-12-05T05:05:32;3.30;99.90
10702;DHT22;5402;50.004;8.246;2022-12-05T05:08:00;3.30;99.90
10702;DHT22;5402;50.004;8.246;2022-12-05T05:10:32;3.30;99.90
10702;DHT22;5402;50.004;8.246;2022-12-05T05:12:59;3.30;99.90
10702;DHT22;5402;50.004;8.246;2022-12-05T05:15:25;3.30;99.90
10702;DHT22;5402;50.004;8.246;2022-12-05T05:17:52;3.30;99.90
10702;DHT22;5402;50.004;8.246;2022-12-05T05:20:20;3.30;99.90
10702;DHT22;5402;50.004;8.246;2022-12-05T05:22:52;3.20;99.90
10702;DHT22;5402;50.004;8.246;2022-12-05T05:25:19;3.20;99.90
10702;DHT22;5402;50.004;8.246;2022-12-05T05:27:48;3.10;99.90
10702;DHT22;5402;50.004;8.246;2022-12-05T05:30:16;3.00;99.90
10702;DHT22;5402;50.004;8.246;2022-12-05T05:32:42;3.00;99.90
10702;DHT22;5402;50.004;8.246;2022-12-05T05:35:10;3.10;99.90
10702;DHT22;5402;50.004;8.246;2022-12-05T05:37:39;3.10;99.90
10702;DHT22;5402;50.004;8.246;2022-12-05T05:40:08;3.00;99.90
10702;DHT22;5402;50.004;8.246;2022-12-05T05:42:35;3.10;99.90
10702;DHT22;5402;50.004;8.246;2022-12-05T05:45:02;3.10;99.90
10702;DHT22;5402;50.004;8.246;2022-12-05T05:47:29;3.00;99.90
10702;DHT22;5402;50.004;8.246;2022-12-05T05:49:56;2.90;99.90
10702;DHT22;5402;50.004;8.246;2022-12-05T05:52:22;2.90;99.90
10702;DHT22;5402;50.004;8.246;2022-12-05T05:54:52;2.80;99.90
10702;DHT22;5402;50.004;8.246;2022-12-05T05:57:18;2.90;99.90
10702;DHT22;5402;50.004;8.246;2022-12-05T05:59:46;2.90;99.90
10702;DHT22;5402;50.004;8.246;2022-12-05T06:02:13;2.90;99.90
10702;DHT22;5402;50.004;8.246;2022-12-05T06:04:40;3.00;99.90
10702;DHT22;5402;50.004;8.246;2022-12-05T06:07:07;3.10;99.90
10702;DHT22;5402;50.004;8.246;2022-12-05T06:09:33;3.10;99.90
10702;DHT22;5402;50.004;8.246;2022-12-05T06:12:01;3.10;99.90
10702;DHT22;5402;50.004;8.246;2022-12-05T06:14:28;3.00;99.90
10702;DHT22;5402;50.004;8.246;2022-12-05T06:16:55;3.00;99.90
10702;DHT22;5402;50.004;8.246;2022-12-05T06:19:22;3.00;99.90
10702;DHT22;5402;50.004;8.246;2022-12-05T06:21:49;3.00;99.90
10702;DHT22;5402;50.004;8.246;2022-12-05T06:24:16;3.00;99.90
10702;DHT22;5402;50.004;8.246;2022-12-05T06:26:43;3.10;99.90
10702;DHT22;5402;50.004;8.246;2022-12-05T06:29:11;3.00;99.90
10702;DHT22;5402;50.004;8.246;2022-12-05T06:31:38;3.00;99.90
10702;DHT22;5402;50.004;8.246;2022-12-05T06:34:04;3.00;99.90
10702;DHT22;5402;50.004;8.246;2022-12-05T06:36:31;3.10;99.90
10702;DHT22;5402;50.004;8.246;2022-12-05T06:38:58;3.10;99.90
10702;DHT22;5402;50.004;8.246;2022-12-05T06:41:26;3.20;99.90
10702;DHT22;5402;50.004;8.246;2022-12-05T06:43:53;3.20;99.90
10702;DHT22;5402;50.004;8.246;2022-12-05T06:46:22;3.20;99.90
10702;DHT22;5402;50.004;8.246;2022-12-05T06:48:51;3.10;99.90
10702;DHT22;5402;50.004;8.246;2022-12-05T06:51:18;3.00;99.90
10702;DHT22;5402;50.004;8.246;2022-12-05T06:53:45;2.90;99.90
10702;DHT22;5402;50.004;8.246;2022-12-05T06:56:14;2.90;99.90
10702;DHT22;5402;50.004;8.246;2022-12-05T06:58:42;2.90;99.90
10702;DHT22;5402;50.004;8.246;2022-12-05T07:01:11;2.90;99.90
10702;DHT22;5402;50.004;8.246;2022-12-05T07:03:57;2.90;99.90
10702;DHT22;5402;50.004;8.246;2022-12-05T07:06:24;3.00;99.90
10702;DHT22;5402;50.004;8.246;2022-12-05T07:08:51;2.90;99.90
10702;DHT22;5402;50.004;8.246;2022-12-05T07:11:18;3.00;99.90
10702;DHT22;5402;50.004;8.246;2022-12-05T07:13:48;3.10;99.90
10702;DHT22;5402;50.004;8.246;2022-12-05T07:16:15;3.20;99.90
10702;DHT22;5402;50.004;8.246;2022-12-05T07:18:42;3.60;99.90
10702;DHT22;5402;50.004;8.246;2022-12-05T07:21:12;4.10;99.90
10702;DHT22;5402;50.004;8.246;2022-12-05T07:23:41;4.00;99.90
10702;DHT22;5402;50.004;8.246;2022-12-05T07:26:10;3.70;99.90
10702;DHT22;5402;50.004;8.246;2022-12-05T07:28:37;3.50;99.90
10702;DHT22;5402;50.004;8.246;2022-12-05T07:31:06;3.40;99.90
10702;DHT22;5402;50.004;8.246;2022-12-05T07:33:33;3.30;99.90
10702;DHT22;5402;50.004;8.246;2022-12-05T07:36:01;3.30;99.90
10702;DHT22;5402;50.004;8.246;2022-12-05T07:38:30;3.20;99.90
10702;DHT22;5402;50.004;8.246;2022-12-05T07:40:57;3.20;99.90
10702;DHT22;5402;50.004;8.246;2022-12-05T07:43:24;3.30;99.90
10702;DHT22;5402;50.004;8.246;2022-12-05T07:45:51;3.30;99.90
10702;DHT22;5402;50.004;8.246;2022-12-05T07:48:17;3.40;99.90
10702;DHT22;5402;50.004;8.246;2022-12-05T07:50:44;3.50;99.90
10702;DHT22;5402;50.004;8.246;2022-12-05T07:53:11;3.50;99.90
10702;DHT22;5402;50.004;8.246;2022-12-05T07:55:39;3.80;99.90
10702;DHT22;5402;50.004;8.246;2022-12-05T07:58:06;3.40;99.90
10702;DHT22;5402;50.004;8.246;2022-12-05T08:00:33;3.40;99.90
10702;DHT22;5402;50.004;8.246;2022-12-05T08:03:01;3.40;99.90
10702;DHT22;5402;50.004;8.246;2022-12-05T08:05:28;3.40;99.90
10702;DHT22;5402;50.004;8.246;2022-12-05T08:07:55;3.50;99.90
10702;DHT22;5402;50.004;8.246;2022-12-05T08:10:22;3.60;99.90
10702;DHT22;5402;50.004;8.246;2022-12-05T08:12:51;3.60;99.90
10702;DHT22;5402;50.004;8.246;2022-12-05T08:15:18;3.50;99.90
10702;DHT22;5402;50.004;8.246;2022-12-05T08:17:45;3.60;99.90
10702;DHT22;5402;50.004;8.246;2022-12-05T08:20:12;3.80;99.90
10702;DHT22;5402;50.004;8.246;2022-12-05T08:22:39;3.70;99.90
10702;DHT22;5402;50.004;8.246;2022-12-05T08:25:07;3.80;99.90
10702;DHT22;5402;50.004;8.246;2022-12-05T08:27:34;3.80;99.90
10702;DHT22;5402;50.004;8.246;2022-12-05T08:30:03;3.70;99.90
10702;DHT22;5402;50.004;8.246;2022-12-05T08:32:30;3.80;99.90
10702;DHT22;5402;50.004;8.246;2022-12-05T08:34:57;3.80;99.90
10702;DHT22;5402;50.004;8.246;2022-12-05T08:37:24;3.70;99.90
10702;DHT22;5402;50.004;8.246;2022-12-05T08:39:51;3.70;99.90
10702;DHT22;5402;50.004;8.246;2022-12-05T08:42:17;3.70;99.90
10702;DHT22;5402;50.004;8.246;2022-12-05T08:44:44;3.70;99.90
10702;DHT22;5402;50.004;8.246;2022-12-05T08:47:12;3.70;99.90
10702;DHT22;5402;50.004;8.246;2022-12-05T08:49:39;3.70;99.90
10702;DHT22;5402;50.004;8.246;2022-12-05T08:52:07;3.70;99.90
10702;DHT22;5402;50.004;8.246;2022-12-05T08:54:34;3.70;99.90
10702;DHT22;5402;50.004;8.246;2022-12-05T08:57:00;3.80;99.90
10702;DHT22;5402;50.004;8.246;2022-12-05T08:59:27;3.90;99.90
10702;DHT22;5402;50.004;8.246;2022-12-05T09:01:54;3.80;99.90
10702;DHT22;5402;50.004;8.246;2022-12-05T09:04:22;3.80;99.90
10702;DHT22;5402;50.004;8.246;2022-12-05T09:06:49;3.90;99.90
10702;DHT22;5402;50.004;8.246;2022-12-05T09:09:16;3.80;99.90
10702;DHT22;5402;50.004;8.246;2022-12-05T09:11:43;3.90;99.90
10702;DHT22;5402;50.004;8.246;2022-12-05T09:14:14;3.80;99.90
10702;DHT22;5402;50.004;8.246;2022-12-05T09:16:43;3.80;99.90
10702;DHT22;5402;50.004;8.246;2022-12-05T09:19:12;3.90;99.90
10702;DHT22;5402;50.004;8.246;2022-12-05T09:21:41;4.00;99.90
10702;DHT22;5402;50.004;8.246;2022-12-05T09:24:10;3.90;99.90
10702;DHT22;5402;50.004;8.246;2022-12-05T09:26:37;4.00;99.90
10702;DHT22;5402;50.004;8.246;2022-12-05T09:29:04;4.00;99.90
10702;DHT22;5402;50.004;8.246;2022-12-05T09:31:32;4.00;99.90
10702;DHT22;5402;50.004;8.246;2022-12-05T09:33:59;4.10;99.90
10702;DHT22;5402;50.004;8.246;2022-12-05T09:36:28;4.10;99.90
10702;DHT22;5402;50.004;8.246;2022-12-05T09:39:00;4.20;99.90
10702;DHT22;5402;50.004;8.246;2022-12-05T09:44:45;4.10;99.90
10702;DHT22;5402;50.004;8.246;2022-12-05T09:47:30;4.20;99.90
10702;DHT22;5402;50.004;8.246;2022-12-05T09:50:02;4.20;99.90
10702;DHT22;5402;50.004;8.246;2022-12-05T09:52:36;4.00;99.90
10702;DHT22;5402;50.004;8.246;2022-12-05T09:55:10;4.10;99.90
10702;DHT22;5402;50.004;8.246;2022-12-05T09:57:41;4.10;99.90
10702;DHT22;5402;50.004;8.246;2022-12-05T10:00:11;4.10;99.90
10702;DHT22;5402;50.004;8.246;2022-12-05T10:02:46;4.00;99.90
10702;DHT22;5402;50.004;8.246;2022-12-05T10:05:18;4.00;99.90
10702;DHT22;5402;50.004;8.246;2022-12-05T10:07:52;4.00;99.90
10702;DHT22;5402;50.004;8.246;2022-12-05T10:10:30;4.00;99.90
10702;DHT22;5402;50.004;8.246;2022-12-05T10:13:13;4.10;99.90
10702;DHT22;5402;50.004;8.246;2022-12-05T10:15:44;4.10;99.90
10702;DHT22;5402;50.004;8.246;2022-12-05T10:18:19;4.20;99.90
10702;DHT22;5402;50.004;8.246;2022-12-05T10:20:53;4.20;99.90
10702;DHT22;5402;50.004;8.246;2022-12-05T10:23:24;4.20;99.90
10702;DHT22;5402;50.004;8.246;2022-12-05T10:25:56;4.30;99.90
10702;DHT22;5402;50.004;8.246;2022-12-05T10:28:29;4.30;99.90
10702;DHT22;5402;50.004;8.246;2022-12-05T10:31:01;4.40;99.90
10702;DHT22;5402;50.004;8.246;2022-12-05T10:33:36;4.50;99.90
10702;DHT22;5402;50.004;8.246;2022-12-05T10:36:08;4.60;99.90
10702;DHT22;5402;50.004;8.246;2022-12-05T10:38:35;4.60;99.90
10702;DHT22;5402;50.004;8.246;2022-12-05T10:41:06;4.60;99.90
10702;DHT22;5402;50.004;8.246;2022-12-05T10:43:35;4.70;99.90
10702;DHT22;5402;50.004;8.246;2022-12-05T10:46:03;4.60;99.90
10702;DHT22;5402;50.004;8.246;2022-12-05T10:48:34;4.60;99.90
10702;DHT22;5402;50.004;8.246;2022-12-05T10:51:01;4.60;99.90
10702;DHT22;5402;50.004;8.246;2022-12-05T10:53:32;4.50;99.90
10702;DHT22;5402;50.004;8.246;2022-12-05T10:56:02;4.30;99.90
10702;DHT22;5402;50.004;8.246;2022-12-05T10:58:30;4.40;99.90
10702;DHT22;5402;50.004;8.246;2022-12-05T11:01:05;4.20;99.90
10702;DHT22;5402;50.004;8.246;2022-12-05T11:03:35;4.30;99.90
10702;DHT22;5402;50.004;8.246;2022-12-05T11:06:15;4.40;99.90
10702;DHT22;5402;50.004;8.246;2022-12-05T11:08:42;4.50;99.90
10702;DHT22;5402;50.004;8.246;2022-12-05T11:11:19;4.50;99.90
10702;DHT22;5402;50.004;8.246;2022-12-05T11:13:53;4.60;99.90
10702;DHT22;5402;50.004;8.246;2022-12-05T11:16:23;4.50;99.90
10702;DHT22;5402;50.004;8.246;2022-12-05T11:18:50;4.50;99.90
10702;DHT22;5402;50.004;8.246;2022-12-05T11:21:17;4.60;99.90
10702;DHT22;5402;50.004;8.246;2022-12-05T11:23:45;4.60;99.90
10702;DHT22;5402;50.004;8.246;2022-12-05T11:26:18;4.70;99.90
10702;DHT22;5402;50.004;8.246;2022-12-05T11:28:45;4.60;99.90
10702;DHT22;5402;50.004;8.246;2022-12-05T11:31:25;4.60;99.90
10702;DHT22;5402;50.004;8.246;2022-12-05T11:34:11;4.60;99.90
10702;DHT22;5402;50.004;8.246;2022-12-05T11:36:44;4.70;99.90
10702;DHT22;5402;50.004;8.246;2022-12-05T11:39:12;4.70;99.90
10702;DHT22;5402;50.004;8.246;2022-12-05T11:41:53;4.70;99.90
10702;DHT22;5402;50.004;8.246;2022-12-05T11:44:33;4.70;99.90
10702;DHT22;5402;50.004;8.246;2022-12-05T11:47:16;4.70;99.90
10702;DHT22;5402;50.004;8.246;2022-12-05T11:50:06;4.80;99.90
10702;DHT22;5402;50.004;8.246;2022-12-05T11:52:53;4.70;99.90
10702;DHT22;5402;50.004;8.246;2022-12-05T11:55:26;4.70;99.90
10702;DHT22;5402;50.004;8.246;2022-12-05T11:58:18;4.80;99.90
10702;DHT22;5402;50.004;8.246;2022-12-05T12:00:59;4.80;99.90
10702;DHT22;5402;50.004;8.246;2022-12-05T12:06:30;4.70;99.90
10702;DHT22;5402;50.004;8.246;2022-12-05T12:09:08;4.70;99.90
10702;DHT22;5402;50.004;8.246;2022-12-05T12:11:44;4.70;99.90
10702;DHT22;5402;50.004;8.246;2022-12-05T12:14:22;4.70;99.90
10702;DHT22;5402;50.004;8.246;2022-12-05T12:16:57;4.80;99.90
10702;DHT22;5402;50.004;8.246;2022-12-05T12:19:48;4.90;99.90
10702;DHT22;5402;50.004;8.246;2022-12-05T12:22:41;4.80;99.90
10702;DHT22;5402;50.004;8.246;2022-12-05T12:25:23;4.90;99.90
10702;DHT22;5402;50.004;8.246;2022-12-05T12:28:02;5.00;99.90
10702;DHT22;5402;50.004;8.246;2022-12-05T12:30:46;5.10;99.90
10702;DHT22;5402;50.004;8.246;2022-12-05T12:33:27;5.10;99.90
10702;DHT22;5402;50.004;8.246;2022-12-05T12:36:03;5.00;99.90
10702;DHT22;5402;50.004;8.246;2022-12-05T12:44:44;4.90;99.90
10702;DHT22;5402;50.004;8.246;2022-12-05T12:47:22;5.00;99.90
10702;DHT22;5402;50.004;8.246;2022-12-05T12:50:02;5.10;99.90
10702;DHT22;5402;50.004;8.246;2022-12-05T12:52:43;5.10;99.90
10702;DHT22;5402;50.004;8.246;2022-12-05T12:55:18;5.10;99.90
10702;DHT22;5402;50.004;8.246;2022-12-05T12:57:56;5.20;99.90
10702;DHT22;5402;50.004;8.246;2022-12-05T13:00:35;5.10;99.90
10702;DHT22;5402;50.004;8.246;2022-12-05T13:03:09;5.00;99.90
10702;DHT22;5402;50.004;8.246;2022-12-05T13:05:41;5.10;99.90
10702;DHT22;5402;50.004;8.246;2022-12-05T13:08:15;5.10;99.90
10702;DHT22;5402;50.004;8.246;2022-12-05T13:10:43;5.20;99.90
10702;DHT22;5402;50.004;8.246;2022-12-05T13:13:15;5.20;99.90
10702;DHT22;5402;50.004;8.246;2022-12-05T13:15:45;5.10;99.90
10702;DHT22;5402;50.004;8.246;2022-12-05T13:18:15;5.10;99.90
10702;DHT22;5402;50.004;8.246;2022-12-05T13:20:45;5.10;99.90
10702;DHT22;5402;50.004;8.246;2022-12-05T13:23:17;5.00;99.90
10702;DHT22;5402;50.004;8.246;2022-12-05T13:25:46;5.00;99.90
10702;DHT22;5402;50.004;8.246;2022-12-05T13:28:32;5.10;99.90
10702;DHT22;5402;50.004;8.246;2022-12-05T13:31:07;5.00;99.90
10702;DHT22;5402;50.004;8.246;2022-12-05T13:33:35;4.90;99.90
10702;DHT22;5402;50.004;8.246;2022-12-05T13:36:09;4.90;99.90
10702;DHT22;5402;50.004;8.246;2022-12-05T13:39:00;4.80;99.90
10702;DHT22;5402;50.004;8.246;2022-12-05T13:41:47;4.80;99.90
10702;DHT22;5402;50.004;8.246;2022-12-05T13:44:35;4.90;99.90
10702;DHT22;5402;50.004;8.246;2022-12-05T13:47:03;4.90;99.90
10702;DHT22;5402;50.004;8.246;2022-12-05T13:49:39;5.00;99.90
10702;DHT22;5402;50.004;8.246;2022-12-05T13:52:12;5.00;99.90
10702;DHT22;5402;50.004;8.246;2022-12-05T13:54:44;5.00;99.90
10702;DHT22;5402;50.004;8.246;2022-12-05T14:00:33;4.90;99.90
10702;DHT22;5402;50.004;8.246;2022-12-05T14:03:08;4.90;99.90
10702;DHT22;5402;50.004;8.246;2022-12-05T14:05:46;4.90;99.90
10702;DHT22;5402;50.004;8.246;2022-12-05T14:11:23;5.00;99.90
10702;DHT22;5402;50.004;8.246;2022-12-05T14:13:50;4.90;99.90
10702;DHT22;5402;50.004;8.246;2022-12-05T14:16:44;4.90;99.90
10702;DHT22;5402;50.004;8.246;2022-12-05T14:22:21;5.10;99.90
10702;DHT22;5402;50.004;8.246;2022-12-05T14:24:55;5.00;99.90
10702;DHT22;5402;50.004;8.246;2022-12-05T14:27:37;5.10;99.90
10702;DHT22;5402;50.004;8.246;2022-12-05T14:30:19;5.10;99.90
10702;DHT22;5402;50.004;8.246;2022-12-05T14:32:47;5.20;99.90
10702;DHT22;5402;50.004;8.246;2022-12-05T14:35:16;5.20;99.90
10702;DHT22;5402;50.004;8.246;2022-12-05T14:37:51;5.10;99.90
10702;DHT22;5402;50.004;8.246;2022-12-05T14:40:25;5.10;99.90
10702;DHT22;5402;50.004;8.246;2022-12-05T14:42:56;5.10;99.90
10702;DHT22;5402;50.004;8.246;2022-12-05T14:45:32;5.00;99.90
10702;DHT22;5402;50.004;8.246;2022-12-05T14:48:00;5.10;99.90
10702;DHT22;5402;50.004;8.246;2022-12-05T14:50:39;5.10;99.90
10702;DHT22;5402;50.004;8.246;2022-12-05T14:53:14;5.00;99.90
10702;DHT22;5402;50.004;8.246;2022-12-05T14:55:45;4.90;99.90
10702;DHT22;5402;50.004;8.246;2022-12-05T14:58:17;5.10;99.90
10702;DHT22;5402;50.004;8.246;2022-12-05T15:00:45;5.10;99.90
10702;DHT22;5402;50.004;8.246;2022-12-05T15:03:23;5.10;99.90
10702;DHT22;5402;50.004;8.246;2022-12-05T15:05:51;5.00;99.90
10702;DHT22;5402;50.004;8.246;2022-12-05T15:08:19;5.00;99.90
10702;DHT22;5402;50.004;8.246;2022-12-05T15:10:48;5.10;99.90
10702;DHT22;5402;50.004;8.246;2022-12-05T15:13:18;5.20;99.90
10702;DHT22;5402;50.004;8.246;2022-12-05T15:15:56;5.10;99.90
10702;DHT22;5402;50.004;8.246;2022-12-05T15:18:29;5.10;99.90
10702;DHT22;5402;50.004;8.246;2022-12-05T15:21:00;5.20;99.90
10702;DHT22;5402;50.004;8.246;2022-12-05T15:23:41;5.20;99.90
10702;DHT22;5402;50.004;8.246;2022-12-05T15:26:16;5.00;99.90
10702;DHT22;5402;50.004;8.246;2022-12-05T15:29:03;5.00;99.90
10702;DHT22;5402;50.004;8.246;2022-12-05T15:31:33;5.00;99.90
10702;DHT22;5402;50.004;8.246;2022-12-05T15:34:03;5.10;99.90
10702;DHT22;5402;50.004;8.246;2022-12-05T15:36:34;5.10;99.90
10702;DHT22;5402;50.004;8.246;2022-12-05T15:39:03;5.20;99.90
10702;DHT22;5402;50.004;8.246;2022-12-05T15:41:30;5.10;99.90
10702;DHT22;5402;50.004;8.246;2022-12-05T15:43:58;5.00;99.90
10702;DHT22;5402;50.004;8.246;2022-12-05T15:46:26;5.00;99.90
10702;DHT22;5402;50.004;8.246;2022-12-05T15:48:55;5.00;99.90
10702;DHT22;5402;50.004;8.246;2022-12-05T15:51:28;5.10;99.90
10702;DHT22;5402;50.004;8.246;2022-12-05T15:54:02;5.10;99.90
10702;DHT22;5402;50.004;8.246;2022-12-05T15:56:34;5.10;99.90
10702;DHT22;5402;50.004;8.246;2022-12-05T15:59:10;5.10;99.90
10702;DHT22;5402;50.004;8.246;2022-12-05T16:01:42;5.10;99.90
10702;DHT22;5402;50.004;8.246;2022-12-05T16:04:14;5.10;99.90
10702;DHT22;5402;50.004;8.246;2022-12-05T16:06:46;5.20;99.90
10702;DHT22;5402;50.004;8.246;2022-12-05T16:09:15;5.20;99.90
10702;DHT22;5402;50.004;8.246;2022-12-05T16:11:52;5.10;99.90
10702;DHT22;5402;50.004;8.246;2022-12-05T16:14:22;5.20;99.90
10702;DHT22;5402;50.004;8.246;2022-12-05T16:16:56;5.20;99.90
10702;DHT22;5402;50.004;8.246;2022-12-05T16:19:25;5.20;99.90
10702;DHT22;5402;50.004;8.246;2022-12-05T16:22:00;5.30;99.90
10702;DHT22;5402;50.004;8.246;2022-12-05T16:24:29;5.30;99.90
10702;DHT22;5402;50.004;8.246;2022-12-05T16:27:00;5.20;99.90
10702;DHT22;5402;50.004;8.246;2022-12-05T16:29:30;5.20;99.90
10702;DHT22;5402;50.004;8.246;2022-12-05T16:31:59;5.20;99.90
10702;DHT22;5402;50.004;8.246;2022-12-05T16:34:28;5.20;99.90
10702;DHT22;5402;50.004;8.246;2022-12-05T16:36:56;5.20;99.90
10702;DHT22;5402;50.004;8.246;2022-12-05T16:39:23;5.30;99.90
10702;DHT22;5402;50.004;8.246;2022-12-05T16:41:52;5.20;99.90
10702;DHT22;5402;50.004;8.246;2022-12-05T16:47:59;5.10;99.90
10702;DHT22;5402;50.004;8.246;2022-12-05T16:50:30;5.10;99.90
10702;DHT22;5402;50.004;8.246;2022-12-05T16:53:16;5.10;99.90